sensor_id;sensor_type;location;lat;lon;timestamp;temperature;humidity
8953;DHT22;4511;50.890;8.054;2022-12-10T00:01:32;-1.10;99.90
8953;DHT22;4511;50.890;8.054;2022-12-10T00:03:58;-1.10;99.90
8953;DHT22;4511;50.890;8.054;2022-12-10T00:06:27;-1.10;99.90
8953;DHT22;4511;50.890;8.054;2022-12-10T00:08:53;-1.10;99.90
8953;DHT22;4511;50.890;8.054;2022-12-10T00:11:22;-1.10;99.90
8953;DHT22;4511;50.890;8.054;2022-12-10T00:13:49;-1.10;99.90
8953;DHT22;4511;50.890;8.054;2022-12-10T00:16:17;-1.10;99.90
8953;DHT22;4511;50.890;8.054;2022-12-10T00:18:44;-1.00;99.90
8953;DHT22;4511;50.890;8.054;2022-12-10T00:21:11;-0.70;99.90
8953;DHT22;4511;50.890;8.054;2022-12-10T00:23:38;-0.50;99.90
8953;DHT22;4511;50.890;8.054;2022-12-10T00:26:07;-0.70;99.90
8953;DHT22;4511;50.890;8.054;2022-12-10T00:28:35;-0.80;99.90
8953;DHT22;4511;50.890;8.054;2022-12-10T00:31:02;-0.90;99.90
8953;DHT22;4511;50.890;8.054;2022-12-10T00:33:29;-0.90;99.90
8953;DHT22;4511;50.890;8.054;2022-12-10T00:35:55;-0.80;99.90
8953;DHT22;4511;50.890;8.054;2022-12-10T00:38:22;-0.90;99.90
8953;DHT22;4511;50.890;8.054;2022-12-10T00:40:49;-0.80;99.90
8953;DHT22;4511;50.890;8.054;2022-12-10T00:43:15;-0.80;99.90
8953;DHT22;4511;50.890;8.054;2022-12-10T00:45:43;-0.90;99.90
8953;DHT22;4511;50.890;8.054;2022-12-10T00:48:10;-1.00;99.90
8953;DHT22;4511;50.890;8.054;2022-12-10T00:50:36;-1.10;99.90
8953;DHT22;4511;50.890;8.054;2022-12-10T00:53:03;-1.10;99.90
8953;DHT22;4511;50.890;8.054;2022-12-10T00:55:30;-1.10;99.90
8953;DHT22;4511;50.890;8.054;2022-12-10T00:57:56;-1.10;99.90
8953;DHT22;4511;50.890;8.054;2022-12-10T01:00:23;-1.10;99.90
8953;DHT22;4511;50.890;8.054;2022-12-10T01:02:51;-1.00;99.90
8953;DHT22;4511;50.890;8.054;2022-12-10T01:05:19;-1.10;99.90
8953;DHT22;4511;50.890;8.054;2022-12-10T01:07:46;-1.10;99.90
8953;DHT22;4511;50.890;8.054;2022-12-10T01:10:13;-1.10;99.90
8953;DHT22;4511;50.890;8.054;2022-12-10T01:12:40;-1.00;99.90
8953;DHT22;4511;50.890;8.054;2022-12-10T01:15:07;-1.00;99.90
8953;DHT22;4511;50.890;8.054;2022-12-10T01:17:34;-1.00;99.90
8953;DHT22;4511;50.890;8.054;2022-12-10T01:20:02;-1.10;99.90
8953;DHT22;4511;50.890;8.054;2022-12-10T01:22:29;-1.10;99.90
8953;DHT22;4511;50.890;8.054;2022-12-10T01:24:56;-1.20;99.90
8953;DHT22;4511;50.890;8.054;2022-12-10T01:27:22;-1.20;99.90
8953;DHT22;4511;50.890;8.054;2022-12-10T01:29:49;-1.20;99.90
8953;DHT22;4511;50.890;8.054;2022-12-10T01:32:16;-1.30;99.90
8953;DHT22;4511;50.890;8.054;2022-12-10T01:34:42;-1.40;99.90
8953;DHT22;4511;50.890;8.054;2022-12-10T01:37:10;-1.40;99.90
8953;DHT22;4511;50.890;8.054;2022-12-10T01:39:37;-1.40;99.90
8953;DHT22;4511;50.890;8.054;2022-12-10T01:42:04;-1.40;99.90
8953;DHT22;4511;50.890;8.054;2022-12-10T01:47:16;-1.40;99.90
8953;DHT22;4511;50.890;8.054;2022-12-10T01:49:42;-1.50;99.90
8953;DHT22;4511;50.890;8.054;2022-12-10T01:52:10;-1.40;99.90
8953;DHT22;4511;50.890;8.054;2022-12-10T01:54:38;-1.50;99.90
8953;DHT22;4511;50.890;8.054;2022-12-10T01:57:06;-1.60;99.90
8953;DHT22;4511;50.890;8.054;2022-12-10T01:59:33;-1.70;99.90
8953;DHT22;4511;50.890;8.054;2022-12-10T02:02:11;-1.70;99.90
8953;DHT22;4511;50.890;8.054;2022-12-10T02:04:41;-1.70;99.90
8953;DHT22;4511;50.890;8.054;2022-12-10T02:07:13;-1.70;99.90
8953;DHT22;4511;50.890;8.054;2022-12-10T02:09:42;-1.60;99.90
8953;DHT22;4511;50.890;8.054;2022-12-10T02:12:11;-1.70;99.90
8953;DHT22;4511;50.890;8.054;2022-12-10T02:14:40;-1.80;99.90
8953;DHT22;4511;50.890;8.054;2022-12-10T02:17:10;-1.90;99.90
8953;DHT22;4511;50.890;8.054;2022-12-10T02:19:52;-1.90;99.90
8953;DHT22;4511;50.890;8.054;2022-12-10T02:22:22;-1.90;99.90
8953;DHT22;4511;50.890;8.054;2022-12-10T02:24:50;-1.80;99.90
8953;DHT22;4511;50.890;8.054;2022-12-10T02:27:20;-1.70;99.90
8953;DHT22;4511;50.890;8.054;2022-12-10T02:29:52;-1.70;99.90
8953;DHT22;4511;50.890;8.054;2022-12-10T02:32:22;-1.80;99.90
8953;DHT22;4511;50.890;8.054;2022-12-10T02:34:50;-1.70;99.90
8953;DHT22;4511;50.890;8.054;2022-12-10T02:37:20;-1.60;99.90
8953;DHT22;4511;50.890;8.054;2022-12-10T02:39:48;-1.50;99.90
8953;DHT22;4511;50.890;8.054;2022-12-10T02:42:16;-1.50;99.90
8953;DHT22;4511;50.890;8.054;2022-12-10T02:44:43;-1.50;99.90
8953;DHT22;4511;50.890;8.054;2022-12-10T02:47:13;-1.50;99.90
8953;DHT22;4511;50.890;8.054;2022-12-10T02:49:40;-1.60;99.90
8953;DHT22;4511;50.890;8.054;2022-12-10T02:52:07;-1.70;99.90
8953;DHT22;4511;50.890;8.054;2022-12-10T02:54:36;-1.70;99.90
8953;DHT22;4511;50.890;8.054;2022-12-10T02:57:06;-1.60;99.90
8953;DHT22;4511;50.890;8.054;2022-12-10T02:59:37;-1.60;99.90
8953;DHT22;4511;50.890;8.054;2022-12-10T03:02:06;-1.60;99.90
8953;DHT22;4511;50.890;8.054;2022-12-10T03:04:36;-1.70;99.90
8953;DHT22;4511;50.890;8.054;2022-12-10T03:07:06;-1.70;99.90
8953;DHT22;4511;50.890;8.054;2022-12-10T03:09:37;-1.80;99.90
8953;DHT22;4511;50.890;8.054;2022-12-10T03:12:06;-1.80;99.90
8953;DHT22;4511;50.890;8.054;2022-12-10T03:14:36;-1.70;99.90
8953;DHT22;4511;50.890;8.054;2022-12-10T03:17:03;-1.70;99.90
8953;DHT22;4511;50.890;8.054;2022-12-10T03:19:30;-1.80;99.90
8953;DHT22;4511;50.890;8.054;2022-12-10T03:22:02;-1.80;99.90
8953;DHT22;4511;50.890;8.054;2022-12-10T03:24:29;-1.80;99.90
8953;DHT22;4511;50.890;8.054;2022-12-10T03:26:57;-1.90;99.90
8953;DHT22;4511;50.890;8.054;2022-12-10T03:29:26;-1.90;99.90
8953;DHT22;4511;50.890;8.054;2022-12-10T03:31:55;-1.90;99.90
8953;DHT22;4511;50.890;8.054;2022-12-10T03:34:23;-2.00;99.90
8953;DHT22;4511;50.890;8.054;2022-12-10T03:36:50;-2.00;99.90
8953;DHT22;4511;50.890;8.054;2022-12-10T03:39:19;-2.00;99.90
8953;DHT22;4511;50.890;8.054;2022-12-10T03:41:45;-2.10;99.90
8953;DHT22;4511;50.890;8.054;2022-12-10T03:44:12;-2.10;99.90
8953;DHT22;4511;50.890;8.054;2022-12-10T03:46:39;-2.10;99.90
8953;DHT22;4511;50.890;8.054;2022-12-10T03:49:05;-2.10;99.90
8953;DHT22;4511;50.890;8.054;2022-12-10T03:51:32;-2.10;99.90
8953;DHT22;4511;50.890;8.054;2022-12-10T03:54:00;-2.20;99.90
8953;DHT22;4511;50.890;8.054;2022-12-10T03:56:28;-2.20;99.90
8953;DHT22;4511;50.890;8.054;2022-12-10T03:58:54;-2.30;99.90
8953;DHT22;4511;50.890;8.054;2022-12-10T04:01:21;-2.30;99.90
8953;DHT22;4511;50.890;8.054;2022-12-10T04:03:48;-2.20;99.90
8953;DHT22;4511;50.890;8.054;2022-12-10T04:06:16;-2.20;99.90
8953;DHT22;4511;50.890;8.054;2022-12-10T04:08:43;-2.20;99.90
8953;DHT22;4511;50.890;8.054;2022-12-10T04:11:10;-2.10;99.90
8953;DHT22;4511;50.890;8.054;2022-12-10T04:13:38;-2.10;99.90
8953;DHT22;4511;50.890;8.054;2022-12-10T04:16:23;-2.10;99.90
8953;DHT22;4511;50.890;8.054;2022-12-10T04:18:52;-2.20;99.90
8953;DHT22;4511;50.890;8.054;2022-12-10T04:21:19;-2.30;99.90
8953;DHT22;4511;50.890;8.054;2022-12-10T04:24:03;-2.30;99.90
8953;DHT22;4511;50.890;8.054;2022-12-10T04:27:00;-2.30;99.90
8953;DHT22;4511;50.890;8.054;2022-12-10T04:29:29;-2.30;99.90
8953;DHT22;4511;50.890;8.054;2022-12-10T04:31:56;-2.40;99.90
8953;DHT22;4511;50.890;8.054;2022-12-10T04:34:23;-2.40;99.90
8953;DHT22;4511;50.890;8.054;2022-12-10T04:36:50;-2.40;99.90
8953;DHT22;4511;50.890;8.054;2022-12-10T04:39:17;-2.40;99.90
8953;DHT22;4511;50.890;8.054;2022-12-10T04:41:45;-2.50;99.90
8953;DHT22;4511;50.890;8.054;2022-12-10T04:44:12;-2.50;99.90
8953;DHT22;4511;50.890;8.054;2022-12-10T04:46:40;-2.60;99.90
8953;DHT22;4511;50.890;8.054;2022-12-10T04:49:07;-2.60;99.90
8953;DHT22;4511;50.890;8.054;2022-12-10T04:51:34;-2.60;99.90
8953;DHT22;4511;50.890;8.054;2022-12-10T04:54:01;-2.60;99.90
8953;DHT22;4511;50.890;8.054;2022-12-10T04:56:28;-2.70;99.90
8953;DHT22;4511;50.890;8.054;2022-12-10T04:58:55;-2.70;99.90
8953;DHT22;4511;50.890;8.054;2022-12-10T05:01:22;-2.60;99.90
8953;DHT22;4511;50.890;8.054;2022-12-10T05:03:50;-2.60;99.90
8953;DHT22;4511;50.890;8.054;2022-12-10T05:06:18;-2.60;99.90
8953;DHT22;4511;50.890;8.054;2022-12-10T05:08:44;-2.60;99.90
8953;DHT22;4511;50.890;8.054;2022-12-10T05:11:12;-2.50;99.90
8953;DHT22;4511;50.890;8.054;2022-12-10T05:13:39;-2.50;99.90
8953;DHT22;4511;50.890;8.054;2022-12-10T05:16:06;-2.60;99.90
8953;DHT22;4511;50.890;8.054;2022-12-10T05:18:33;-2.60;99.90
8953;DHT22;4511;50.890;8.054;2022-12-10T05:21:03;-2.60;99.90
8953;DHT22;4511;50.890;8.054;2022-12-10T05:23:30;-2.60;99.90
8953;DHT22;4511;50.890;8.054;2022-12-10T05:25:59;-2.60;99.90
8953;DHT22;4511;50.890;8.054;2022-12-10T05:28:26;-2.60;99.90
8953;DHT22;4511;50.890;8.054;2022-12-10T05:30:53;-2.60;99.90
8953;DHT22;4511;50.890;8.054;2022-12-10T05:33:19;-2.70;99.90
8953;DHT22;4511;50.890;8.054;2022-12-10T05:35:51;-2.90;99.90
8953;DHT22;4511;50.890;8.054;2022-12-10T05:38:19;-2.80;99.90
8953;DHT22;4511;50.890;8.054;2022-12-10T05:40:46;-2.90;99.90
8953;DHT22;4511;50.890;8.054;2022-12-10T05:43:13;-2.80;99.90
8953;DHT22;4511;50.890;8.054;2022-12-10T05:45:40;-2.80;99.90
8953;DHT22;4511;50.890;8.054;2022-12-10T05:48:08;-2.90;99.90
8953;DHT22;4511;50.890;8.054;2022-12-10T05:50:34;-3.00;99.90
8953;DHT22;4511;50.890;8.054;2022-12-10T05:53:01;-3.10;99.90
8953;DHT22;4511;50.890;8.054;2022-12-10T05:55:29;-3.10;99.90
8953;DHT22;4511;50.890;8.054;2022-12-10T05:57:58;-3.20;99.90
8953;DHT22;4511;50.890;8.054;2022-12-10T06:00:26;-3.10;99.90
8953;DHT22;4511;50.890;8.054;2022-12-10T06:02:52;-3.10;99.90
8953;DHT22;4511;50.890;8.054;2022-12-10T06:05:19;-3.00;99.90
8953;DHT22;4511;50.890;8.054;2022-12-10T06:07:46;-2.90;99.90
8953;DHT22;4511;50.890;8.054;2022-12-10T06:10:13;-2.90;99.90
8953;DHT22;4511;50.890;8.054;2022-12-10T06:12:41;-3.00;99.90
8953;DHT22;4511;50.890;8.054;2022-12-10T06:15:08;-3.10;99.90
8953;DHT22;4511;50.890;8.054;2022-12-10T06:17:34;-3.00;99.90
8953;DHT22;4511;50.890;8.054;2022-12-10T06:20:01;-3.00;99.90
8953;DHT22;4511;50.890;8.054;2022-12-10T06:22:28;-3.00;99.90
8953;DHT22;4511;50.890;8.054;2022-12-10T06:24:56;-3.00;99.90
8953;DHT22;4511;50.890;8.054;2022-12-10T06:27:22;-3.10;99.90
8953;DHT22;4511;50.890;8.054;2022-12-10T06:29:50;-3.10;99.90
8953;DHT22;4511;50.890;8.054;2022-12-10T06:32:17;-3.10;99.90
8953;DHT22;4511;50.890;8.054;2022-12-10T06:34:43;-2.90;99.90
8953;DHT22;4511;50.890;8.054;2022-12-10T06:37:11;-2.90;99.90
8953;DHT22;4511;50.890;8.054;2022-12-10T06:39:38;-3.00;99.90
8953;DHT22;4511;50.890;8.054;2022-12-10T06:42:05;-3.00;99.90
8953;DHT22;4511;50.890;8.054;2022-12-10T06:44:31;-3.00;99.90
8953;DHT22;4511;50.890;8.054;2022-12-10T06:47:00;-3.00;99.90
8953;DHT22;4511;50.890;8.054;2022-12-10T06:49:26;-3.10;99.90
8953;DHT22;4511;50.890;8.054;2022-12-10T06:51:53;-3.20;99.90
8953;DHT22;4511;50.890;8.054;2022-12-10T06:54:21;-3.20;99.90
8953;DHT22;4511;50.890;8.054;2022-12-10T06:56:47;-3.30;99.90
8953;DHT22;4511;50.890;8.054;2022-12-10T06:59:15;-3.30;99.90
8953;DHT22;4511;50.890;8.054;2022-12-10T07:01:41;-3.30;99.90
8953;DHT22;4511;50.890;8.054;2022-12-10T07:04:10;-3.30;99.90
8953;DHT22;4511;50.890;8.054;2022-12-10T07:06:36;-3.30;99.90
8953;DHT22;4511;50.890;8.054;2022-12-10T07:09:03;-3.20;99.90
8953;DHT22;4511;50.890;8.054;2022-12-10T07:11:29;-3.10;99.90
8953;DHT22;4511;50.890;8.054;2022-12-10T07:13:57;-3.20;99.90
8953;DHT22;4511;50.890;8.054;2022-12-10T07:16:24;-3.20;99.90
8953;DHT22;4511;50.890;8.054;2022-12-10T07:18:51;-3.20;99.90
8953;DHT22;4511;50.890;8.054;2022-12-10T07:21:20;-3.10;99.90
8953;DHT22;4511;50.890;8.054;2022-12-10T07:23:48;-3.10;99.90
8953;DHT22;4511;50.890;8.054;2022-12-10T07:26:14;-3.10;99.90
8953;DHT22;4511;50.890;8.054;2022-12-10T07:28:41;-3.20;99.90
8953;DHT22;4511;50.890;8.054;2022-12-10T07:31:08;-3.10;99.90
8953;DHT22;4511;50.890;8.054;2022-12-10T07:33:35;-3.20;99.90
8953;DHT22;4511;50.890;8.054;2022-12-10T07:36:03;-3.20;99.90
8953;DHT22;4511;50.890;8.054;2022-12-10T07:38:31;-3.20;99.90
8953;DHT22;4511;50.890;8.054;2022-12-10T07:41:01;-3.20;99.90
8953;DHT22;4511;50.890;8.054;2022-12-10T07:43:28;-3.20;99.90
8953;DHT22;4511;50.890;8.054;2022-12-10T07:45:55;-3.20;99.90
8953;DHT22;4511;50.890;8.054;2022-12-10T07:48:22;-3.20;99.90
8953;DHT22;4511;50.890;8.054;2022-12-10T07:50:55;-3.10;99.90
8953;DHT22;4511;50.890;8.054;2022-12-10T07:53:21;-3.20;99.90
8953;DHT22;4511;50.890;8.054;2022-12-10T07:55:49;-3.10;99.90
8953;DHT22;4511;50.890;8.054;2022-12-10T07:58:16;-3.10;99.90
8953;DHT22;4511;50.890;8.054;2022-12-10T08:00:43;-3.10;99.90
8953;DHT22;4511;50.890;8.054;2022-12-10T08:03:09;-3.20;99.90
8953;DHT22;4511;50.890;8.054;2022-12-10T08:05:36;-3.10;99.90
8953;DHT22;4511;50.890;8.054;2022-12-10T08:08:03;-3.10;99.90
8953;DHT22;4511;50.890;8.054;2022-12-10T08:10:30;-3.00;99.90
8953;DHT22;4511;50.890;8.054;2022-12-10T08:13:00;-3.00;99.90
8953;DHT22;4511;50.890;8.054;2022-12-10T08:15:27;-3.00;99.90
8953;DHT22;4511;50.890;8.054;2022-12-10T08:17:54;-3.00;99.90
8953;DHT22;4511;50.890;8.054;2022-12-10T08:20:21;-3.00;99.90
8953;DHT22;4511;50.890;8.054;2022-12-10T08:22:48;-3.00;99.90
8953;DHT22;4511;50.890;8.054;2022-12-10T08:25:15;-3.00;99.90
8953;DHT22;4511;50.890;8.054;2022-12-10T08:27:41;-3.30;99.90
8953;DHT22;4511;50.890;8.054;2022-12-10T08:30:10;-3.30;99.90
8953;DHT22;4511;50.890;8.054;2022-12-10T08:32:36;-3.20;99.90
8953;DHT22;4511;50.890;8.054;2022-12-10T08:35:03;-3.00;99.90
8953;DHT22;4511;50.890;8.054;2022-12-10T08:37:30;-2.90;99.90
8953;DHT22;4511;50.890;8.054;2022-12-10T08:39:57;-2.80;99.90
8953;DHT22;4511;50.890;8.054;2022-12-10T08:42:23;-2.60;99.90
8953;DHT22;4511;50.890;8.054;2022-12-10T08:44:50;-2.60;99.90
8953;DHT22;4511;50.890;8.054;2022-12-10T08:47:18;-2.40;99.90
8953;DHT22;4511;50.890;8.054;2022-12-10T08:49:45;-2.40;99.90
8953;DHT22;4511;50.890;8.054;2022-12-10T08:52:11;-2.20;99.90
8953;DHT22;4511;50.890;8.054;2022-12-10T08:54:38;-2.10;99.90
8953;DHT22;4511;50.890;8.054;2022-12-10T08:57:05;-2.10;99.90
8953;DHT22;4511;50.890;8.054;2022-12-10T08:59:31;-1.90;99.90
8953;DHT22;4511;50.890;8.054;2022-12-10T09:01:58;-1.40;99.90
8953;DHT22;4511;50.890;8.054;2022-12-10T09:04:26;-1.20;99.90
8953;DHT22;4511;50.890;8.054;2022-12-10T09:06:53;-1.00;99.90
8953;DHT22;4511;50.890;8.054;2022-12-10T09:09:19;-0.80;99.90
8953;DHT22;4511;50.890;8.054;2022-12-10T09:11:47;-0.90;99.90
8953;DHT22;4511;50.890;8.054;2022-12-10T09:14:14;-1.00;99.90
8953;DHT22;4511;50.890;8.054;2022-12-10T09:16:40;-1.10;99.90
8953;DHT22;4511;50.890;8.054;2022-12-10T09:19:08;-1.20;99.90
8953;DHT22;4511;50.890;8.054;2022-12-10T09:21:36;-1.30;99.90
8953;DHT22;4511;50.890;8.054;2022-12-10T09:24:03;-1.40;99.90
8953;DHT22;4511;50.890;8.054;2022-12-10T09:26:31;-1.30;99.90
8953;DHT22;4511;50.890;8.054;2022-12-10T09:28:58;-1.20;99.90
8953;DHT22;4511;50.890;8.054;2022-12-10T09:31:25;-0.60;99.90
8953;DHT22;4511;50.890;8.054;2022-12-10T09:33:52;-0.70;99.90
8953;DHT22;4511;50.890;8.054;2022-12-10T09:36:19;-0.80;99.90
8953;DHT22;4511;50.890;8.054;2022-12-10T09:38:48;-0.90;99.90
8953;DHT22;4511;50.890;8.054;2022-12-10T09:41:22;-0.90;99.90
8953;DHT22;4511;50.890;8.054;2022-12-10T09:43:52;-1.00;99.90
8953;DHT22;4511;50.890;8.054;2022-12-10T09:46:23;-1.10;99.90
8953;DHT22;4511;50.890;8.054;2022-12-10T09:48:54;-1.00;99.90
8953;DHT22;4511;50.890;8.054;2022-12-10T09:51:24;-1.00;99.90
8953;DHT22;4511;50.890;8.054;2022-12-10T09:53:53;-1.00;99.90
8953;DHT22;4511;50.890;8.054;2022-12-10T09:56:24;-1.00;99.90
8953;DHT22;4511;50.890;8.054;2022-12-10T09:58:52;-1.00;99.90
8953;DHT22;4511;50.890;8.054;2022-12-10T10:01:19;-1.10;99.90
8953;DHT22;4511;50.890;8.054;2022-12-10T10:03:48;-1.10;99.90
8953;DHT22;4511;50.890;8.054;2022-12-10T10:06:15;-1.10;99.90
8953;DHT22;4511;50.890;8.054;2022-12-10T10:08:42;-1.10;99.90
8953;DHT22;4511;50.890;8.054;2022-12-10T10:11:12;-0.60;99.90
8953;DHT22;4511;50.890;8.054;2022-12-10T10:13:41;-0.60;99.90
8953;DHT22;4511;50.890;8.054;2022-12-10T10:16:16;-0.70;99.90
8953;DHT22;4511;50.890;8.054;2022-12-10T10:18:45;-0.70;99.90
8953;DHT22;4511;50.890;8.054;2022-12-10T10:21:15;-0.70;99.90
8953;DHT22;4511;50.890;8.054;2022-12-10T10:23:43;-0.80;99.90
8953;DHT22;4511;50.890;8.054;2022-12-10T10:26:12;-0.80;99.90
8953;DHT22;4511;50.890;8.054;2022-12-10T10:28:39;-0.80;99.90
8953;DHT22;4511;50.890;8.054;2022-12-10T10:31:08;-0.70;99.90
8953;DHT22;4511;50.890;8.054;2022-12-10T10:33:40;-0.80;99.90
8953;DHT22;4511;50.890;8.054;2022-12-10T10:36:14;-0.90;99.90
8953;DHT22;4511;50.890;8.054;2022-12-10T10:38:43;-0.90;99.90
8953;DHT22;4511;50.890;8.054;2022-12-10T10:41:14;-0.80;99.90
8953;DHT22;4511;50.890;8.054;2022-12-10T10:43:42;-0.80;99.90
8953;DHT22;4511;50.890;8.054;2022-12-10T10:46:11;-0.70;99.90
8953;DHT22;4511;50.890;8.054;2022-12-10T10:48:38;-0.70;99.90
8953;DHT22;4511;50.890;8.054;2022-12-10T10:51:05;-0.70;99.90
8953;DHT22;4511;50.890;8.054;2022-12-10T10:53:33;-0.70;99.90
8953;DHT22;4511;50.890;8.054;2022-12-10T10:56:06;-0.70;99.90
8953;DHT22;4511;50.890;8.054;2022-12-10T10:58:35;-0.70;99.90
8953;DHT22;4511;50.890;8.054;2022-12-10T11:01:03;-0.70;99.90
8953;DHT22;4511;50.890;8.054;2022-12-10T11:03:30;-0.70;99.90
8953;DHT22;4511;50.890;8.054;2022-12-10T11:05:58;-0.60;99.90
8953;DHT22;4511;50.890;8.054;2022-12-10T11:08:26;-0.60;99.90
8953;DHT22;4511;50.890;8.054;2022-12-10T11:10:55;-0.50;99.90
8953;DHT22;4511;50.890;8.054;2022-12-10T11:13:24;-0.50;99.90
8953;DHT22;4511;50.890;8.054;2022-12-10T11:15:58;-0.50;99.90
8953;DHT22;4511;50.890;8.054;2022-12-10T11:18:26;-0.40;99.90
8953;DHT22;4511;50.890;8.054;2022-12-10T11:20:56;0.00;99.90
8953;DHT22;4511;50.890;8.054;2022-12-10T11:23:25;0.30;99.90
8953;DHT22;4511;50.890;8.054;2022-12-10T11:25:55;0.20;99.90
8953;DHT22;4511;50.890;8.054;2022-12-10T11:28:28;0.10;99.90
8953;DHT22;4511;50.890;8.054;2022-12-10T11:31:02;-0.10;99.90
8953;DHT22;4511;50.890;8.054;2022-12-10T11:33:34;-0.10;99.90
8953;DHT22;4511;50.890;8.054;2022-12-10T11:36:05;-0.20;99.90
8953;DHT22;4511;50.890;8.054;2022-12-10T11:38:36;-0.10;99.90
8953;DHT22;4511;50.890;8.054;2022-12-10T11:41:07;0.10;99.90
8953;DHT22;4511;50.890;8.054;2022-12-10T11:43:49;0.20;99.90
8953;DHT22;4511;50.890;8.054;2022-12-10T11:46:25;0.10;99.90
8953;DHT22;4511;50.890;8.054;2022-12-10T11:49:04;0.00;99.90
8953;DHT22;4511;50.890;8.054;2022-12-10T11:51:38;0.00;99.90
8953;DHT22;4511;50.890;8.054;2022-12-10T11:54:13;0.00;99.90
8953;DHT22;4511;50.890;8.054;2022-12-10T11:56:43;-0.10;99.90
8953;DHT22;4511;50.890;8.054;2022-12-10T11:59:15;-0.20;99.90
8953;DHT22;4511;50.890;8.054;2022-12-10T12:01:59;-0.30;99.90
8953;DHT22;4511;50.890;8.054;2022-12-10T12:04:31;-0.20;99.90
8953;DHT22;4511;50.890;8.054;2022-12-10T12:07:06;-0.20;99.90
8953;DHT22;4511;50.890;8.054;2022-12-10T12:09:41;-0.30;99.90
8953;DHT22;4511;50.890;8.054;2022-12-10T12:12:16;-0.40;99.90
8953;DHT22;4511;50.890;8.054;2022-12-10T12:14:48;-0.30;99.90
8953;DHT22;4511;50.890;8.054;2022-12-10T12:17:18;-0.30;99.90
8953;DHT22;4511;50.890;8.054;2022-12-10T12:19:49;-0.30;99.90
8953;DHT22;4511;50.890;8.054;2022-12-10T12:22:23;-0.30;99.90
8953;DHT22;4511;50.890;8.054;2022-12-10T12:24:50;-0.30;99.90
8953;DHT22;4511;50.890;8.054;2022-12-10T12:27:20;-0.20;99.90
8953;DHT22;4511;50.890;8.054;2022-12-10T12:29:50;-0.10;99.90
8953;DHT22;4511;50.890;8.054;2022-12-10T12:32:21;-0.10;99.90
8953;DHT22;4511;50.890;8.054;2022-12-10T12:34:51;-0.10;99.90
8953;DHT22;4511;50.890;8.054;2022-12-10T12:37:20;-0.10;99.90
8953;DHT22;4511;50.890;8.054;2022-12-10T12:39:49;-0.10;99.90
8953;DHT22;4511;50.890;8.054;2022-12-10T12:42:20;0.00;99.90
8953;DHT22;4511;50.890;8.054;2022-12-10T12:44:55;0.00;99.90
8953;DHT22;4511;50.890;8.054;2022-12-10T12:47:26;-0.10;99.90
8953;DHT22;4511;50.890;8.054;2022-12-10T12:49:56;-0.10;99.90
8953;DHT22;4511;50.890;8.054;2022-12-10T12:52:26;0.00;99.90
8953;DHT22;4511;50.890;8.054;2022-12-10T12:54:57;-0.10;99.90
8953;DHT22;4511;50.890;8.054;2022-12-10T12:57:30;0.00;99.90
8953;DHT22;4511;50.890;8.054;2022-12-10T13:00:00;-0.10;99.90
8953;DHT22;4511;50.890;8.054;2022-12-10T13:02:42;-0.20;99.90
8953;DHT22;4511;50.890;8.054;2022-12-10T13:05:14;-0.20;99.90
8953;DHT22;4511;50.890;8.054;2022-12-10T13:07:42;-0.20;99.90
8953;DHT22;4511;50.890;8.054;2022-12-10T13:10:22;-0.20;99.90
8953;DHT22;4511;50.890;8.054;2022-12-10T13:12:50;-0.10;99.90
8953;DHT22;4511;50.890;8.054;2022-12-10T13:15:21;-0.10;99.90
8953;DHT22;4511;50.890;8.054;2022-12-10T13:18:03;0.00;99.90
8953;DHT22;4511;50.890;8.054;2022-12-10T13:20:30;-0.10;99.90
8953;DHT22;4511;50.890;8.054;2022-12-10T13:22:59;-0.20;99.90
8953;DHT22;4511;50.890;8.054;2022-12-10T13:25:37;-0.30;99.90
8953;DHT22;4511;50.890;8.054;2022-12-10T13:28:15;-0.20;99.90
8953;DHT22;4511;50.890;8.054;2022-12-10T13:30:43;-0.10;99.90
8953;DHT22;4511;50.890;8.054;2022-12-10T13:33:13;-0.10;99.90
8953;DHT22;4511;50.890;8.054;2022-12-10T13:35:44;0.00;99.90
8953;DHT22;4511;50.890;8.054;2022-12-10T13:38:18;0.00;99.90
8953;DHT22;4511;50.890;8.054;2022-12-10T13:40:54;0.00;99.90
8953;DHT22;4511;50.890;8.054;2022-12-10T13:43:40;0.10;99.90
8953;DHT22;4511;50.890;8.054;2022-12-10T13:46:25;0.10;99.90
8953;DHT22;4511;50.890;8.054;2022-12-10T13:48:54;0.10;99.90
8953;DHT22;4511;50.890;8.054;2022-12-10T13:51:25;0.20;99.90
8953;DHT22;4511;50.890;8.054;2022-12-10T13:53:57;0.60;99.90
8953;DHT22;4511;50.890;8.054;2022-12-10T13:56:26;0.50;99.90
8953;DHT22;4511;50.890;8.054;2022-12-10T13:58:56;0.30;99.90
8953;DHT22;4511;50.890;8.054;2022-12-10T14:01:29;0.30;99.90
8953;DHT22;4511;50.890;8.054;2022-12-10T14:06:46;0.10;99.90
8953;DHT22;4511;50.890;8.054;2022-12-10T14:09:17;0.10;99.90
8953;DHT22;4511;50.890;8.054;2022-12-10T14:11:45;0.10;99.90
8953;DHT22;4511;50.890;8.054;2022-12-10T14:14:14;0.00;99.90
8953;DHT22;4511;50.890;8.054;2022-12-10T14:16:43;0.10;99.90
8953;DHT22;4511;50.890;8.054;2022-12-10T14:19:11;0.10;99.90
8953;DHT22;4511;50.890;8.054;2022-12-10T14:21:40;0.20;99.90
8953;DHT22;4511;50.890;8.054;2022-12-10T14:26:54;0.20;99.90
8953;DHT22;4511;50.890;8.054;2022-12-10T14:29:22;0.20;99.90
8953;DHT22;4511;50.890;8.054;2022-12-10T14:31:49;0.10;99.90
8953;DHT22;4511;50.890;8.054;2022-12-10T14:34:18;0.10;99.90
8953;DHT22;4511;50.890;8.054;2022-12-10T14:36:48;0.10;99.90
8953;DHT22;4511;50.890;8.054;2022-12-10T14:39:15;0.10;99.90
8953;DHT22;4511;50.890;8.054;2022-12-10T14:41:42;0.10;99.90
8953;DHT22;4511;50.890;8.054;2022-12-10T14:44:11;0.10;99.90
8953;DHT22;4511;50.890;8.054;2022-12-10T14:46:39;0.00;99.90
8953;DHT22;4511;50.890;8.054;2022-12-10T14:49:06;0.40;99.90
8953;DHT22;4511;50.890;8.054;2022-12-10T14:51:36;0.70;99.90
8953;DHT22;4511;50.890;8.054;2022-12-10T14:54:03;0.60;99.90
8953;DHT22;4511;50.890;8.054;2022-12-10T14:56:30;0.50;99.90
8953;DHT22;4511;50.890;8.054;2022-12-10T14:59:03;0.10;99.90
8953;DHT22;4511;50.890;8.054;2022-12-10T15:01:33;0.10;99.90
8953;DHT22;4511;50.890;8.054;2022-12-10T15:04:02;0.10;99.90
8953;DHT22;4511;50.890;8.054;2022-12-10T15:06:32;0.00;99.90
8953;DHT22;4511;50.890;8.054;2022-12-10T15:08:59;-0.10;99.90
8953;DHT22;4511;50.890;8.054;2022-12-10T15:11:26;0.00;99.90
8953;DHT22;4511;50.890;8.054;2022-12-10T15:13:54;0.00;99.90
8953;DHT22;4511;50.890;8.054;2022-12-10T15:16:28;0.00;99.90
8953;DHT22;4511;50.890;8.054;2022-12-10T15:19:05;-0.10;99.90
8953;DHT22;4511;50.890;8.054;2022-12-10T15:21:32;0.00;99.90
8953;DHT22;4511;50.890;8.054;2022-12-10T15:24:07;0.00;99.90
8953;DHT22;4511;50.890;8.054;2022-12-10T15:26:35;0.10;99.90
8953;DHT22;4511;50.890;8.054;2022-12-10T15:29:15;0.10;99.90
8953;DHT22;4511;50.890;8.054;2022-12-10T15:31:53;0.00;99.90
8953;DHT22;4511;50.890;8.054;2022-12-10T15:34:22;0.20;99.90
8953;DHT22;4511;50.890;8.054;2022-12-10T15:36:52;0.10;99.90
8953;DHT22;4511;50.890;8.054;2022-12-10T15:39:20;0.10;99.90
8953;DHT22;4511;50.890;8.054;2022-12-10T15:41:48;0.10;99.90
8953;DHT22;4511;50.890;8.054;2022-12-10T15:44:18;-0.10;99.90
8953;DHT22;4511;50.890;8.054;2022-12-10T15:46:48;-0.10;99.90
8953;DHT22;4511;50.890;8.054;2022-12-10T15:49:15;-0.10;99.90
8953;DHT22;4511;50.890;8.054;2022-12-10T15:51:43;-0.10;99.90
8953;DHT22;4511;50.890;8.054;2022-12-10T15:54:19;-0.20;99.90
8953;DHT22;4511;50.890;8.054;2022-12-10T15:56:46;-0.10;99.90
8953;DHT22;4511;50.890;8.054;2022-12-10T15:59:12;-0.10;99.90
8953;DHT22;4511;50.890;8.054;2022-12-10T16:01:39;-0.20;99.90
8953;DHT22;4511;50.890;8.054;2022-12-10T16:04:06;-0.20;99.90
8953;DHT22;4511;50.890;8.054;2022-12-10T16:06:32;-0.20;99.90
8953;DHT22;4511;50.890;8.054;2022-12-10T16:09:00;-0.10;99.90
8953;DHT22;4511;50.890;8.054;2022-12-10T16:11:27;-0.10;99.90
8953;DHT22;4511;50.890;8.054;2022-12-10T16:13:54;-0.10;99.90
8953;DHT22;4511;50.890;8.054;2022-12-10T16:16:22;-0.10;99.90
8953;DHT22;4511;50.890;8.054;2022-12-10T16:18:49;-0.10;99.90
8953;DHT22;4511;50.890;8.054;2022-12-10T16:21:16;-0.20;99.90
8953;DHT22;4511;50.890;8.054;2022-12-10T16:23:42;-0.20;99.90